Lakefield, Canada
Current Conditions -  °F | °C
As of 4:00 PM on Saturday 25 Oct 2014 (Local Time) from CYPQ Reporting Station
Scattered Clouds Scattered Clouds  
Wind Chill: 59°   Ceiling: Unl
Heat Index: 59°   Visibility: 9mi
Dew Point: 50°   Wind: 13mph
Humidity: 72%   Direction: 280°W
Pressure: 29.54"   Gusts: 21mph
Location:  44.43°N, 78.27°W
Report Text: CYPQ 252000Z AUTO 28011G18KT 9SM FEW028 SCT037 SCT045 15/10 A2954 RMK SLP007 DENSITY ALT 1200FT
Loading
Personal Weather Stations






























Interactive Weather Map New forecast layout! Learn more

10-Day Weather Forecast

Advertisements
Track Severe Weather on mobile